Brookville, Pennsylvania
Current Conditions -  °F | °C
As of 7:53 PM on Tuesday 25 Nov 2014 (Local Time) from KDUJ Reporting Station
Clear Clear  
Wind Chill: 26°   Ceiling: Unl
Heat Index: 32°   Visibility: 10mi
Dew Point: 24°   Wind: 7mph
Humidity: 73%   Direction: 270°W
Pressure: 30.12"   Gusts: NA
Location:  41.16°N, 79.08°W
Report Text: KDUJ 260053Z AUTO 27006KT 10SM CLR 00/M04 A3012 RMK AO2 SLP214 T00001044
Loading
Personal Weather Stations






























Interactive Weather Map New forecast layout! Learn more

10-Day Weather Forecast

Advertisements
Track Severe Weather on mobile